sensor_id;sensor_type;location;lat;lon;timestamp;pressure;altitude;pressure_sealevel;temperature;humidity
22862;BME280;11598;50.652;6.172;2023-06-24T00:01:18;97411.16;;;13.71;100.00
22862;BME280;11598;50.652;6.172;2023-06-24T00:11:18;97407.22;;;13.65;100.00
22862;BME280;11598;50.652;6.172;2023-06-24T00:21:19;97404.13;;;13.60;100.00
22862;BME280;11598;50.652;6.172;2023-06-24T00:31:20;97392.78;;;13.48;100.00
22862;BME280;11598;50.652;6.172;2023-06-24T00:41:21;97384.44;;;13.43;100.00
22862;BME280;11598;50.652;6.172;2023-06-24T00:51:21;97380.47;;;13.38;100.00
22862;BME280;11598;50.652;6.172;2023-06-24T01:01:28;97390.19;;;13.36;100.00
22862;BME280;11598;50.652;6.172;2023-06-24T01:11:35;97382.81;;;13.29;100.00
22862;BME280;11598;50.652;6.172;2023-06-24T01:42:17;97384.69;;;13.15;100.00
22862;BME280;11598;50.652;6.172;2023-06-24T01:52:21;97381.63;;;13.21;100.00
22862;BME280;11598;50.652;6.172;2023-06-24T02:02:24;97393.66;;;13.10;100.00
22862;BME280;11598;50.652;6.172;2023-06-24T02:12:26;97380.31;;;13.02;100.00
22862;BME280;11598;50.652;6.172;2023-06-24T02:22:28;97375.09;;;13.02;100.00
22862;BME280;11598;50.652;6.172;2023-06-24T02:32:29;97383.97;;;13.13;100.00
22862;BME280;11598;50.652;6.172;2023-06-24T02:42:29;97371.94;;;13.23;100.00
22862;BME280;11598;50.652;6.172;2023-06-24T02:52:30;97379.38;;;13.29;100.00
22862;BME280;11598;50.652;6.172;2023-06-24T03:02:31;97381.31;;;13.38;100.00
22862;BME280;11598;50.652;6.172;2023-06-24T03:12:32;97382.56;;;13.45;100.00
22862;BME280;11598;50.652;6.172;2023-06-24T03:22:32;97391.72;;;13.51;100.00
22862;BME280;11598;50.652;6.172;2023-06-24T03:32:33;97392.00;;;13.59;100.00
22862;BME280;11598;50.652;6.172;2023-06-24T03:42:35;97404.50;;;13.67;100.00
22862;BME280;11598;50.652;6.172;2023-06-24T03:52:35;97403.97;;;13.74;100.00
22862;BME280;11598;50.652;6.172;2023-06-24T04:02:36;97412.44;;;13.89;100.00
22862;BME280;11598;50.652;6.172;2023-06-24T04:12:36;97413.13;;;14.04;100.00
22862;BME280;11598;50.652;6.172;2023-06-24T04:22:41;97417.34;;;14.18;100.00
22862;BME280;11598;50.652;6.172;2023-06-24T04:32:41;97423.94;;;14.35;100.00
22862;BME280;11598;50.652;6.172;2023-06-24T04:42:41;97423.44;;;14.54;100.00
22862;BME280;11598;50.652;6.172;2023-06-24T04:52:42;97418.84;;;14.80;100.00
22862;BME280;11598;50.652;6.172;2023-06-24T05:02:42;97414.94;;;15.08;100.00
22862;BME280;11598;50.652;6.172;2023-06-24T05:12:42;97419.78;;;15.47;100.00
22862;BME280;11598;50.652;6.172;2023-06-24T05:22:43;97415.00;;;15.85;100.00
22862;BME280;11598;50.652;6.172;2023-06-24T05:32:43;97409.69;;;16.29;100.00
22862;BME280;11598;50.652;6.172;2023-06-24T05:42:43;97408.44;;;16.65;100.00
22862;BME280;11598;50.652;6.172;2023-06-24T05:52:44;97403.72;;;17.11;100.00
22862;BME280;11598;50.652;6.172;2023-06-24T06:02:44;97403.19;;;17.58;100.00
22862;BME280;11598;50.652;6.172;2023-06-24T06:12:45;97415.06;;;18.02;100.00
22862;BME280;11598;50.652;6.172;2023-06-24T06:22:45;97411.16;;;18.45;100.00
22862;BME280;11598;50.652;6.172;2023-06-24T06:32:45;97414.47;;;18.86;99.28
22862;BME280;11598;50.652;6.172;2023-06-24T06:42:46;97425.13;;;19.32;97.42
22862;BME280;11598;50.652;6.172;2023-06-24T06:52:46;97422.84;;;19.74;93.57
22862;BME280;11598;50.652;6.172;2023-06-24T07:02:46;97433.59;;;20.26;91.89
22862;BME280;11598;50.652;6.172;2023-06-24T07:12:47;97436.81;;;20.74;89.77
22862;BME280;11598;50.652;6.172;2023-06-24T07:22:47;97431.66;;;21.17;86.74
22862;BME280;11598;50.652;6.172;2023-06-24T07:32:48;97422.84;;;21.77;84.24
22862;BME280;11598;50.652;6.172;2023-06-24T07:42:48;97443.50;;;22.56;78.68
22862;BME280;11598;50.652;6.172;2023-06-24T07:52:48;97442.13;;;23.18;72.79
22862;BME280;11598;50.652;6.172;2023-06-24T08:02:50;97430.16;;;23.70;68.19
22862;BME280;11598;50.652;6.172;2023-06-24T08:12:50;97429.22;;;24.48;63.77
22862;BME280;11598;50.652;6.172;2023-06-24T08:22:50;97442.88;;;25.21;60.68
22862;BME280;11598;50.652;6.172;2023-06-24T08:32:51;97435.34;;;25.69;56.75
22862;BME280;11598;50.652;6.172;2023-06-24T08:42:51;97428.25;;;25.76;52.62
22862;BME280;11598;50.652;6.172;2023-06-24T08:52:52;97428.25;;;24.87;50.26
22862;BME280;11598;50.652;6.172;2023-06-24T09:02:52;97435.63;;;24.08;50.77
22862;BME280;11598;50.652;6.172;2023-06-24T09:12:54;97438.56;;;23.50;50.06
22862;BME280;11598;50.652;6.172;2023-06-24T09:23:02;97430.22;;;23.06;52.77
22862;BME280;11598;50.652;6.172;2023-06-24T09:33:03;97427.25;;;22.76;54.29
22862;BME280;11598;50.652;6.172;2023-06-24T09:43:04;97425.94;;;22.64;55.90
22862;BME280;11598;50.652;6.172;2023-06-24T09:53:05;97408.91;;;22.50;55.75
22862;BME280;11598;50.652;6.172;2023-06-24T10:03:06;97406.91;;;22.68;54.91
22862;BME280;11598;50.652;6.172;2023-06-24T10:13:07;97397.13;;;22.36;52.52
22862;BME280;11598;50.652;6.172;2023-06-24T10:23:07;97380.75;;;22.16;50.67
22862;BME280;11598;50.652;6.172;2023-06-24T10:33:10;97374.78;;;22.22;53.25
22862;BME280;11598;50.652;6.172;2023-06-24T10:53:24;97353.97;;;22.44;53.79
22862;BME280;11598;50.652;6.172;2023-06-24T11:03:24;97355.78;;;22.43;52.30
22862;BME280;11598;50.652;6.172;2023-06-24T11:13:24;97335.53;;;22.67;51.29
22862;BME280;11598;50.652;6.172;2023-06-24T11:23:25;97331.25;;;22.66;49.85
22862;BME280;11598;50.652;6.172;2023-06-24T11:33:28;97322.81;;;22.70;50.07
22862;BME280;11598;50.652;6.172;2023-06-24T11:43:29;97320.47;;;22.84;51.10
22862;BME280;11598;50.652;6.172;2023-06-24T11:53:30;97305.53;;;22.91;47.38
22862;BME280;11598;50.652;6.172;2023-06-24T12:03:32;97302.56;;;22.77;46.57
22862;BME280;11598;50.652;6.172;2023-06-24T12:13:33;97288.66;;;22.84;45.16
22862;BME280;11598;50.652;6.172;2023-06-24T12:23:33;97289.78;;;22.89;45.49
22862;BME280;11598;50.652;6.172;2023-06-24T12:33:34;97275.19;;;23.02;45.96
22862;BME280;11598;50.652;6.172;2023-06-24T12:43:34;97276.66;;;23.04;44.59
22862;BME280;11598;50.652;6.172;2023-06-24T12:53:35;97262.63;;;22.95;42.71
22862;BME280;11598;50.652;6.172;2023-06-24T13:03:35;97262.25;;;23.07;45.59
22862;BME280;11598;50.652;6.172;2023-06-24T13:13:36;97266.09;;;22.96;46.33
22862;BME280;11598;50.652;6.172;2023-06-24T13:23:36;97251.81;;;22.97;47.36
22862;BME280;11598;50.652;6.172;2023-06-24T13:33:38;97255.47;;;22.96;46.71
22862;BME280;11598;50.652;6.172;2023-06-24T13:43:38;97253.88;;;22.87;45.28
22862;BME280;11598;50.652;6.172;2023-06-24T13:53:39;97242.09;;;22.89;44.68
22862;BME280;11598;50.652;6.172;2023-06-24T14:03:39;97233.63;;;22.94;44.31
22862;BME280;11598;50.652;6.172;2023-06-24T14:13:41;97232.13;;;22.99;44.86
22862;BME280;11598;50.652;6.172;2023-06-24T14:23:41;97229.97;;;22.95;44.09
22862;BME280;11598;50.652;6.172;2023-06-24T14:33:42;97220.69;;;23.07;44.89
22862;BME280;11598;50.652;6.172;2023-06-24T14:43:42;97223.34;;;23.07;44.68
22862;BME280;11598;50.652;6.172;2023-06-24T14:53:42;97213.72;;;23.06;43.51
22862;BME280;11598;50.652;6.172;2023-06-24T15:03:42;97203.59;;;23.10;43.60
22862;BME280;11598;50.652;6.172;2023-06-24T15:13:43;97198.00;;;23.28;42.07
22862;BME280;11598;50.652;6.172;2023-06-24T15:23:43;97183.69;;;23.14;42.51
22862;BME280;11598;50.652;6.172;2023-06-24T15:33:43;97178.09;;;23.09;43.89
22862;BME280;11598;50.652;6.172;2023-06-24T15:43:44;97178.16;;;22.92;43.70
22862;BME280;11598;50.652;6.172;2023-06-24T15:53:44;97181.63;;;22.93;44.57
22862;BME280;11598;50.652;6.172;2023-06-24T16:03:45;97166.81;;;22.75;45.26
22862;BME280;11598;50.652;6.172;2023-06-24T16:13:45;97160.72;;;22.67;44.76
22862;BME280;11598;50.652;6.172;2023-06-24T16:23:45;97152.22;;;22.79;44.77
22862;BME280;11598;50.652;6.172;2023-06-24T16:33:46;97156.94;;;22.92;45.23
22862;BME280;11598;50.652;6.172;2023-06-24T16:43:47;97155.31;;;22.91;43.67
22862;BME280;11598;50.652;6.172;2023-06-24T16:53:48;97157.19;;;22.83;44.09
22862;BME280;11598;50.652;6.172;2023-06-24T17:03:48;97152.47;;;22.62;44.33
22862;BME280;11598;50.652;6.172;2023-06-24T17:13:49;97135.25;;;22.34;44.73
22862;BME280;11598;50.652;6.172;2023-06-24T17:23:49;97135.13;;;22.11;44.61
22862;BME280;11598;50.652;6.172;2023-06-24T17:33:49;97129.81;;;22.11;45.94
22862;BME280;11598;50.652;6.172;2023-06-24T17:43:50;97131.50;;;21.96;44.76
22862;BME280;11598;50.652;6.172;2023-06-24T17:53:50;97124.56;;;21.95;44.64
22862;BME280;11598;50.652;6.172;2023-06-24T18:03:50;97117.31;;;21.89;43.28
22862;BME280;11598;50.652;6.172;2023-06-24T18:13:51;97115.31;;;21.91;44.00
22862;BME280;11598;50.652;6.172;2023-06-24T18:23:51;97105.03;;;21.96;43.53
22862;BME280;11598;50.652;6.172;2023-06-24T18:33:52;97111.84;;;21.90;43.86
22862;BME280;11598;50.652;6.172;2023-06-24T18:43:52;97098.81;;;21.81;43.48
22862;BME280;11598;50.652;6.172;2023-06-24T18:53:53;97099.78;;;21.80;44.09
22862;BME280;11598;50.652;6.172;2023-06-24T19:03:53;97094.72;;;21.62;44.34
22862;BME280;11598;50.652;6.172;2023-06-24T19:13:54;97090.44;;;21.44;44.58
22862;BME280;11598;50.652;6.172;2023-06-24T19:23:55;97090.91;;;21.23;44.78
22862;BME280;11598;50.652;6.172;2023-06-24T19:33:55;97083.47;;;21.02;45.35
22862;BME280;11598;50.652;6.172;2023-06-24T19:44:04;97076.53;;;20.77;46.53
22862;BME280;11598;50.652;6.172;2023-06-24T19:54:08;97092.22;;;20.27;47.53
22862;BME280;11598;50.652;6.172;2023-06-24T20:04:08;97103.91;;;19.91;52.13
22862;BME280;11598;50.652;6.172;2023-06-24T20:14:08;97095.88;;;19.04;54.76
22862;BME280;11598;50.652;6.172;2023-06-24T20:24:09;97097.56;;;18.32;59.24
22862;BME280;11598;50.652;6.172;2023-06-24T20:34:09;97098.75;;;17.82;61.92
22862;BME280;11598;50.652;6.172;2023-06-24T20:44:10;97085.03;;;17.41;64.27
22862;BME280;11598;50.652;6.172;2023-06-24T20:54:12;97078.16;;;17.11;67.16
22862;BME280;11598;50.652;6.172;2023-06-24T21:04:12;97079.00;;;16.82;68.10
22862;BME280;11598;50.652;6.172;2023-06-24T21:14:13;97065.28;;;16.59;68.56
22862;BME280;11598;50.652;6.172;2023-06-24T21:24:13;97068.00;;;16.38;68.74
22862;BME280;11598;50.652;6.172;2023-06-24T21:34:14;97063.72;;;16.27;70.11
22862;BME280;11598;50.652;6.172;2023-06-24T21:44:14;97061.22;;;16.16;71.44
22862;BME280;11598;50.652;6.172;2023-06-24T21:54:14;97057.44;;;15.99;71.15
22862;BME280;11598;50.652;6.172;2023-06-24T22:04:15;97053.91;;;15.79;72.82
22862;BME280;11598;50.652;6.172;2023-06-24T22:14:15;97048.59;;;15.70;72.70
22862;BME280;11598;50.652;6.172;2023-06-24T22:24:16;97030.19;;;15.71;70.60
22862;BME280;11598;50.652;6.172;2023-06-24T22:34:16;97028.88;;;15.65;70.03
22862;BME280;11598;50.652;6.172;2023-06-24T22:44:17;97028.13;;;15.54;71.08
22862;BME280;11598;50.652;6.172;2023-06-24T22:54:17;97021.31;;;15.41;72.25
22862;BME280;11598;50.652;6.172;2023-06-24T23:04:18;97019.59;;;15.31;74.11
22862;BME280;11598;50.652;6.172;2023-06-24T23:14:19;97018.28;;;15.15;74.46
22862;BME280;11598;50.652;6.172;2023-06-24T23:24:20;97023.97;;;14.99;75.37
22862;BME280;11598;50.652;6.172;2023-06-24T23:34:24;97009.56;;;14.84;74.13
22862;BME280;11598;50.652;6.172;2023-06-24T23:44:25;96997.47;;;14.93;71.32
22862;BME280;11598;50.652;6.172;2023-06-24T23:54:25;96977.13;;;14.96;70.99
